createdAt,value
2023-01-25T00:02:19.997Z,30.30
2023-01-25T00:04:46.768Z,29.48
2023-01-25T00:07:13.524Z,28.33
2023-01-25T00:09:40.271Z,27.13
2023-01-25T00:12:07.003Z,33.85
2023-01-25T00:14:33.752Z,38.65
2023-01-25T00:17:00.484Z,31.20
2023-01-25T00:19:27.279Z,35.22
2023-01-25T00:21:53.995Z,31.65
2023-01-25T00:24:23.044Z,34.45
2023-01-25T00:26:49.899Z,31.77
2023-01-25T00:29:16.739Z,30.13
2023-01-25T00:32:02.753Z,29.13
2023-01-25T00:37:20.822Z,23.43
2023-01-25T00:39:47.864Z,27.10
2023-01-25T00:42:16.869Z,28.48
2023-01-25T00:44:43.907Z,23.58
2023-01-25T00:47:11.679Z,23.10
2023-01-25T00:49:40.050Z,23.80
2023-01-25T00:52:07.763Z,23.83
2023-01-25T00:54:34.523Z,23.88
2023-01-25T00:57:01.298Z,26.15
2023-01-25T00:59:28.340Z,24.92
2023-01-25T01:01:55.326Z,26.70
2023-01-25T01:04:25.013Z,25.63
2023-01-25T01:06:53.899Z,24.55
2023-01-25T01:09:22.698Z,28.05
2023-01-25T01:11:50.037Z,25.42
2023-01-25T01:14:17.239Z,27.13
2023-01-25T01:16:44.084Z,25.48
2023-01-25T01:19:11.097Z,23.08
2023-01-25T01:21:38.315Z,27.35
2023-01-25T01:24:05.557Z,23.15
2023-01-25T01:26:32.334Z,26.77
2023-01-25T01:28:59.819Z,31.05
2023-01-25T01:31:26.780Z,27.25
2023-01-25T01:33:56.387Z,27.00
2023-01-25T01:36:25.327Z,29.95
2023-01-25T01:38:52.442Z,24.45
2023-01-25T01:41:20.497Z,23.13
2023-01-25T01:43:47.883Z,24.40
2023-01-25T01:46:20.411Z,24.95
2023-01-25T01:49:18.656Z,26.25
2023-01-25T01:52:05.406Z,24.65
2023-01-25T01:54:41.949Z,23.75
2023-01-25T01:57:14.381Z,25.52
2023-01-25T01:59:50.338Z,25.95
2023-01-25T02:02:17.205Z,26.30
2023-01-25T02:04:48.657Z,26.75
2023-01-25T02:07:36.303Z,26.95
2023-01-25T02:10:06.632Z,26.52
2023-01-25T02:12:33.605Z,26.20
2023-01-25T02:15:00.407Z,26.20
2023-01-25T02:17:30.199Z,29.13
2023-01-25T02:20:03.260Z,27.98
2023-01-25T02:22:54.409Z,26.27
2023-01-25T02:25:21.814Z,27.77
2023-01-25T02:28:02.124Z,27.83
2023-01-25T02:30:28.954Z,28.67
2023-01-25T02:32:55.633Z,25.25
2023-01-25T02:35:25.299Z,30.83
2023-01-25T02:37:52.446Z,29.77
2023-01-25T02:40:19.280Z,32.30
2023-01-25T02:42:46.381Z,29.05
2023-01-25T02:45:17.884Z,29.45
2023-01-25T02:47:44.900Z,33.47
2023-01-25T02:50:13.241Z,26.55
2023-01-25T02:52:41.145Z,35.17
2023-01-25T02:55:08.897Z,32.47
2023-01-25T02:57:35.816Z,29.77
2023-01-25T03:00:03.949Z,29.17
2023-01-25T03:02:30.676Z,30.85
2023-01-25T03:04:57.461Z,28.27
2023-01-25T03:07:24.267Z,32.33
2023-01-25T03:09:50.969Z,29.98
2023-01-25T03:12:17.602Z,32.10
2023-01-25T03:14:44.571Z,34.78
2023-01-25T03:17:11.591Z,29.25
2023-01-25T03:19:38.368Z,28.88
2023-01-25T03:22:06.771Z,29.50
2023-01-25T03:24:33.579Z,30.20
2023-01-25T03:27:14.131Z,30.15
2023-01-25T03:29:41.871Z,32.70
2023-01-25T03:32:09.079Z,29.05
2023-01-25T03:34:36.487Z,32.15
2023-01-25T03:37:03.747Z,29.20
2023-01-25T03:39:30.629Z,31.73
2023-01-25T03:41:57.619Z,28.65
2023-01-25T03:44:24.614Z,27.25
2023-01-25T03:46:51.333Z,25.75
2023-01-25T03:49:18.711Z,25.83
2023-01-25T03:51:45.491Z,23.55
2023-01-25T03:54:12.296Z,25.38
2023-01-25T03:56:39.393Z,26.80
2023-01-25T03:59:06.324Z,24.63
2023-01-25T04:01:33.282Z,30.65
2023-01-25T04:04:00.101Z,28.73
2023-01-25T04:06:26.852Z,32.42
2023-01-25T04:08:53.552Z,28.90
2023-01-25T04:11:20.583Z,31.02
2023-01-25T04:13:47.619Z,29.58
2023-01-25T04:16:14.404Z,31.02
2023-01-25T04:18:41.319Z,25.90
2023-01-25T04:21:08.243Z,27.95
2023-01-25T04:23:34.924Z,28.98
2023-01-25T04:26:05.870Z,30.70
2023-01-25T04:28:34.404Z,26.90
2023-01-25T04:31:03.475Z,31.65
2023-01-25T04:33:30.543Z,28.05
2023-01-25T04:35:57.499Z,28.52
2023-01-25T04:38:24.494Z,29.33
2023-01-25T04:40:52.310Z,27.52
2023-01-25T04:43:20.893Z,26.58
2023-01-25T04:45:47.900Z,29.67
2023-01-25T04:48:15.263Z,31.20
2023-01-25T04:50:43.159Z,29.85
2023-01-25T04:53:11.705Z,26.58
2023-01-25T04:55:38.539Z,28.77
2023-01-25T04:58:05.816Z,30.83
2023-01-25T05:00:33.002Z,28.38
2023-01-25T05:02:59.806Z,30.92
2023-01-25T05:05:26.657Z,31.65
2023-01-25T05:07:53.383Z,32.15
2023-01-25T05:10:20.331Z,33.28
2023-01-25T05:12:47.031Z,34.35
2023-01-25T05:15:14.074Z,30.40
2023-01-25T05:17:40.977Z,30.88
2023-01-25T05:20:08.504Z,30.77
2023-01-25T05:22:35.225Z,36.20
2023-01-25T05:25:02.948Z,32.63
2023-01-25T05:27:29.811Z,32.63
2023-01-25T05:29:57.378Z,35.92
2023-01-25T05:32:25.239Z,33.90
2023-01-25T05:34:52.513Z,37.60
2023-01-25T05:37:20.695Z,37.60
2023-01-25T05:39:47.609Z,38.55
2023-01-25T05:42:16.877Z,36.75
2023-01-25T05:44:47.365Z,39.00
2023-01-25T05:47:16.542Z,40.45
2023-01-25T05:49:43.669Z,41.92
2023-01-25T05:52:17.372Z,39.67
2023-01-25T05:54:44.435Z,38.58
2023-01-25T05:57:13.275Z,36.80
2023-01-25T05:59:40.020Z,41.67
2023-01-25T06:02:06.920Z,39.03
2023-01-25T06:04:33.791Z,39.67
2023-01-25T06:07:00.487Z,38.05
2023-01-25T06:09:27.251Z,35.22
2023-01-25T06:11:54.037Z,38.65
2023-01-25T06:14:20.704Z,37.80
2023-01-25T06:16:47.378Z,42.28
2023-01-25T06:19:14.380Z,36.95
2023-01-25T06:21:41.249Z,40.80
2023-01-25T06:24:08.274Z,41.50
2023-01-25T06:26:35.004Z,44.33
2023-01-25T06:29:01.790Z,40.58
2023-01-25T06:31:28.674Z,42.00
2023-01-25T06:33:55.450Z,43.15
2023-01-25T06:36:22.937Z,39.28
2023-01-25T06:38:51.373Z,44.42
2023-01-25T06:41:19.381Z,39.90
2023-01-25T06:43:47.120Z,41.55
2023-01-25T06:46:14.076Z,42.10
2023-01-25T06:48:42.888Z,43.70
2023-01-25T06:51:12.838Z,39.95
2023-01-25T06:53:42.481Z,37.38
2023-01-25T06:56:15.371Z,41.53
2023-01-25T06:58:42.227Z,46.42
2023-01-25T07:01:16.570Z,42.75
2023-01-25T07:03:43.439Z,47.72
2023-01-25T07:06:11.382Z,43.58
2023-01-25T07:08:39.667Z,48.05
2023-01-25T07:11:09.527Z,42.80
2023-01-25T07:13:36.282Z,39.42
2023-01-25T07:16:05.965Z,42.95
2023-01-25T07:18:33.679Z,41.00
2023-01-25T07:21:12.902Z,50.22
2023-01-25T07:23:40.041Z,47.10
2023-01-25T07:26:12.944Z,47.28
2023-01-25T07:28:39.660Z,49.25
2023-01-25T07:31:07.229Z,45.35
2023-01-25T07:33:34.856Z,56.30
2023-01-25T07:36:08.848Z,49.80
2023-01-25T07:38:36.474Z,49.58
2023-01-25T07:41:03.738Z,58.78
2023-01-25T07:43:30.910Z,53.60
2023-01-25T07:46:02.859Z,51.15
2023-01-25T07:48:29.747Z,50.40
2023-01-25T07:51:11.839Z,49.75
2023-01-25T07:53:43.421Z,50.25
2023-01-25T07:56:12.589Z,50.80
2023-01-25T07:58:40.075Z,52.42
2023-01-25T08:01:15.180Z,52.70
2023-01-25T08:03:43.878Z,53.50
2023-01-25T08:06:11.716Z,49.08
2023-01-25T08:08:49.661Z,48.38
2023-01-25T08:11:22.430Z,48.22
2023-01-25T08:13:49.914Z,55.78
2023-01-25T08:16:18.783Z,60.05
2023-01-25T08:18:57.076Z,51.78
2023-01-25T08:21:25.577Z,49.88
2023-01-25T08:23:52.465Z,50.72
2023-01-25T08:26:19.299Z,51.13
2023-01-25T08:28:48.752Z,55.83
2023-01-25T08:31:19.049Z,49.00
2023-01-25T08:33:47.028Z,54.38
2023-01-25T08:36:15.513Z,52.78
2023-01-25T08:38:42.582Z,50.00
2023-01-25T08:41:12.111Z,51.55
2023-01-25T08:43:38.952Z,49.75
2023-01-25T08:46:06.333Z,52.70
2023-01-25T08:48:33.421Z,50.97
2023-01-25T08:51:01.185Z,53.63
2023-01-25T08:53:29.182Z,50.10
2023-01-25T08:56:04.941Z,49.55
2023-01-25T08:58:31.972Z,46.40
2023-01-25T09:01:07.517Z,57.55
2023-01-25T09:03:39.715Z,48.40
2023-01-25T09:06:07.749Z,53.42
2023-01-25T09:08:35.306Z,51.03
2023-01-25T09:11:03.985Z,50.00
2023-01-25T09:13:30.701Z,50.88
2023-01-25T09:16:09.921Z,47.42
2023-01-25T09:18:38.144Z,50.45
2023-01-25T09:21:17.126Z,47.45
2023-01-25T09:23:51.517Z,51.90
2023-01-25T09:26:31.522Z,47.70
2023-01-25T09:28:59.323Z,47.03
2023-01-25T09:31:28.278Z,48.10
2023-01-25T09:33:55.152Z,46.78
2023-01-25T09:36:21.849Z,42.60
2023-01-25T09:38:48.658Z,42.78
2023-01-25T09:41:30.372Z,44.72
2023-01-25T09:44:15.874Z,43.88
2023-01-25T09:46:50.221Z,44.42
2023-01-25T09:50:04.633Z,46.67
2023-01-25T09:52:40.297Z,45.60
2023-01-25T09:57:41.941Z,41.53
2023-01-25T10:00:30.865Z,45.28
2023-01-25T10:03:05.822Z,45.33
2023-01-25T10:05:42.982Z,45.28
2023-01-25T10:08:19.569Z,49.75
2023-01-25T10:10:48.993Z,42.03
2023-01-25T10:13:19.363Z,39.22
2023-01-25T10:16:24.447Z,43.00
2023-01-25T10:19:14.816Z,43.37
2023-01-25T10:21:45.619Z,49.22
2023-01-25T10:24:34.613Z,48.05
2023-01-25T10:27:20.044Z,44.22
2023-01-25T10:29:48.413Z,51.13
2023-01-25T10:32:22.411Z,47.20
2023-01-25T10:34:57.087Z,48.88
2023-01-25T10:37:30.937Z,51.35
2023-01-25T10:40:21.233Z,47.17
2023-01-25T10:42:51.788Z,51.53
2023-01-25T10:45:18.713Z,50.42
2023-01-25T10:47:57.762Z,43.95
2023-01-25T10:50:42.910Z,44.60
2023-01-25T10:53:24.372Z,44.90
2023-01-25T10:56:15.168Z,41.95
2023-01-25T10:58:46.133Z,45.15
2023-01-25T11:01:30.547Z,42.70
2023-01-25T11:03:59.233Z,43.88
2023-01-25T11:06:37.994Z,41.75
2023-01-25T11:09:22.699Z,44.30
2023-01-25T11:12:00.497Z,45.53
2023-01-25T11:14:29.848Z,45.95
2023-01-25T11:16:58.285Z,46.58
2023-01-25T11:19:36.774Z,48.58
2023-01-25T11:22:28.618Z,46.00
2023-01-25T11:24:55.655Z,48.53
2023-01-25T11:27:24.893Z,41.22
2023-01-25T11:30:16.296Z,37.17
2023-01-25T11:32:43.347Z,33.10
2023-01-25T11:35:15.931Z,30.27
2023-01-25T11:38:08.399Z,36.47
2023-01-25T11:41:08.182Z,32.95
2023-01-25T11:43:46.886Z,29.88
2023-01-25T11:46:34.820Z,30.77
2023-01-25T11:49:29.716Z,28.95
2023-01-25T11:52:02.243Z,26.50
2023-01-25T11:54:41.488Z,31.13
2023-01-25T11:57:26.520Z,31.98
2023-01-25T12:00:20.887Z,30.80
2023-01-25T12:03:07.129Z,32.25
2023-01-25T12:05:45.829Z,29.17
2023-01-25T12:08:53.249Z,28.90
2023-01-25T12:11:36.894Z,29.63
2023-01-25T12:14:28.323Z,25.45
2023-01-25T12:17:22.620Z,21.75
2023-01-25T12:20:04.630Z,24.77
2023-01-25T12:22:49.618Z,25.23
2023-01-25T12:26:09.976Z,24.25
2023-01-25T12:28:42.765Z,20.27
2023-01-25T12:31:25.407Z,25.88
2023-01-25T12:33:56.242Z,23.38
2023-01-25T12:36:40.218Z,23.52
2023-01-25T12:39:18.311Z,21.63
2023-01-25T12:42:07.111Z,25.35
2023-01-25T12:44:42.353Z,24.13
2023-01-25T12:47:38.088Z,21.95
2023-01-25T12:50:13.800Z,25.55
2023-01-25T12:52:54.043Z,25.38
2023-01-25T12:55:21.113Z,23.38
2023-01-25T12:57:53.625Z,22.05
2023-01-25T13:00:33.861Z,21.42
2023-01-25T13:03:24.908Z,23.83
2023-01-25T13:06:18.721Z,22.02
2023-01-25T13:09:01.940Z,21.80
2023-01-25T13:11:38.757Z,26.77
2023-01-25T13:14:17.997Z,22.27
2023-01-25T13:17:09.081Z,26.02
2023-01-25T13:19:36.749Z,25.02
2023-01-25T13:22:04.904Z,23.23
2023-01-25T13:24:33.684Z,22.60
2023-01-25T13:27:09.623Z,23.80
2023-01-25T13:29:36.448Z,24.58
2023-01-25T13:32:05.496Z,25.63
2023-01-25T13:34:35.869Z,26.17
2023-01-25T13:37:15.508Z,24.23
2023-01-25T13:39:56.885Z,23.90
2023-01-25T13:42:33.597Z,24.83
2023-01-25T13:45:03.554Z,27.15
2023-01-25T13:47:35.876Z,30.35
2023-01-25T13:50:27.110Z,28.90
2023-01-25T13:53:03.707Z,26.85
2023-01-25T13:55:41.936Z,28.73
2023-01-25T13:58:31.165Z,29.35
2023-01-25T14:01:17.297Z,27.27
2023-01-25T14:03:59.666Z,26.20
2023-01-25T14:06:31.081Z,26.63
2023-01-25T14:09:01.489Z,30.67
2023-01-25T14:11:31.069Z,27.52
2023-01-25T14:14:18.017Z,25.33
2023-01-25T14:16:45.404Z,25.42
2023-01-25T14:19:25.488Z,25.13
2023-01-25T14:22:20.234Z,27.30
2023-01-25T14:25:12.064Z,25.67
2023-01-25T14:27:48.520Z,27.50
2023-01-25T14:30:21.547Z,26.45
2023-01-25T14:32:50.102Z,26.05
2023-01-25T14:35:42.782Z,26.77
2023-01-25T14:38:22.768Z,24.70
2023-01-25T14:40:52.036Z,26.75
2023-01-25T14:43:19.381Z,24.95
2023-01-25T14:45:46.323Z,26.70
2023-01-25T14:48:35.056Z,26.92
2023-01-25T14:51:25.958Z,26.13
2023-01-25T14:54:05.048Z,25.85
2023-01-25T14:57:00.691Z,28.08
2023-01-25T14:59:44.856Z,28.17
2023-01-25T15:02:40.743Z,28.80
2023-01-25T15:05:21.583Z,29.77
2023-01-25T15:07:54.343Z,32.45
2023-01-25T15:10:32.840Z,26.40
2023-01-25T15:13:12.389Z,28.58
2023-01-25T15:15:57.954Z,29.20
2023-01-25T15:18:44.242Z,27.05
2023-01-25T15:23:42.222Z,28.42
2023-01-25T15:26:14.662Z,29.63
2023-01-25T15:28:41.506Z,33.28
2023-01-25T15:31:22.349Z,30.55
2023-01-25T15:33:49.478Z,34.40
2023-01-25T15:36:17.407Z,26.77
2023-01-25T15:38:44.497Z,29.52
2023-01-25T15:41:12.266Z,30.23
2023-01-25T15:43:39.235Z,34.78
2023-01-25T15:46:11.945Z,24.92
2023-01-25T15:48:43.289Z,28.73
2023-01-25T15:51:10.581Z,28.50
2023-01-25T15:53:37.603Z,28.58
2023-01-25T15:56:10.584Z,26.73
2023-01-25T15:58:42.606Z,27.23
2023-01-25T16:01:09.480Z,25.88
2023-01-25T16:03:36.292Z,29.10
2023-01-25T16:06:07.536Z,25.25
2023-01-25T16:08:36.847Z,24.50
2023-01-25T16:11:03.665Z,22.98
2023-01-25T16:13:30.437Z,21.20
2023-01-25T16:15:57.395Z,27.23
2023-01-25T16:18:24.119Z,20.95
2023-01-25T16:20:50.923Z,20.45
2023-01-25T16:23:17.637Z,21.13
2023-01-25T16:25:47.605Z,21.15
2023-01-25T16:28:16.070Z,24.13
2023-01-25T16:30:45.166Z,24.83
2023-01-25T16:33:12.101Z,25.10
2023-01-25T16:35:38.868Z,24.50
2023-01-25T16:38:05.586Z,22.33
2023-01-25T16:40:38.829Z,20.55
2023-01-25T16:43:06.092Z,24.30
2023-01-25T16:45:32.949Z,22.35
2023-01-25T16:48:00.078Z,24.38
2023-01-25T16:50:26.776Z,20.88
2023-01-25T16:52:54.770Z,25.38
2023-01-25T16:55:21.512Z,22.60
2023-01-25T16:57:51.895Z,25.42
2023-01-25T17:00:19.279Z,26.25
2023-01-25T17:02:58.101Z,24.38
2023-01-25T17:05:29.205Z,25.30
2023-01-25T17:07:56.002Z,23.58
2023-01-25T17:10:23.034Z,22.58
2023-01-25T17:12:50.597Z,26.92
2023-01-25T17:15:20.458Z,24.88
2023-01-25T17:17:47.211Z,26.27
2023-01-25T17:20:13.976Z,28.38
2023-01-25T17:22:41.895Z,22.52
2023-01-25T17:25:08.766Z,19.48
2023-01-25T17:27:35.693Z,30.10
2023-01-25T17:30:02.393Z,20.88
2023-01-25T17:32:29.134Z,22.50
2023-01-25T17:34:59.003Z,26.58
2023-01-25T17:37:25.947Z,22.10
2023-01-25T17:39:53.546Z,28.25
2023-01-25T17:42:22.084Z,27.75
2023-01-25T17:44:48.923Z,23.27
2023-01-25T17:47:15.617Z,25.83
2023-01-25T17:49:42.383Z,22.88
2023-01-25T17:52:09.231Z,23.13
2023-01-25T17:54:36.312Z,28.33
2023-01-25T17:57:03.203Z,23.75
2023-01-25T17:59:30.004Z,30.77
2023-01-25T18:01:57.916Z,23.80
2023-01-25T18:04:25.547Z,30.30
2023-01-25T18:06:52.408Z,27.35
2023-01-25T18:09:19.671Z,23.20
2023-01-25T18:11:47.896Z,23.67
2023-01-25T18:14:16.821Z,24.02
2023-01-25T18:16:44.704Z,26.95
2023-01-25T18:19:12.340Z,26.45
2023-01-25T18:21:40.643Z,26.05
2023-01-25T18:24:29.170Z,24.98
2023-01-25T18:27:08.090Z,30.27
2023-01-25T18:29:48.328Z,35.67
2023-01-25T18:32:15.810Z,26.63
2023-01-25T18:34:42.627Z,24.60
2023-01-25T18:37:18.656Z,27.85
2023-01-25T18:39:50.120Z,28.73
2023-01-25T18:42:17.274Z,30.38
2023-01-25T18:44:48.179Z,32.58
2023-01-25T18:47:20.130Z,25.10
2023-01-25T18:49:49.190Z,31.13
2023-01-25T18:52:21.057Z,27.13
2023-01-25T18:54:47.951Z,27.65
2023-01-25T18:57:15.509Z,25.70
2023-01-25T18:59:43.507Z,31.08
2023-01-25T19:02:12.681Z,26.60
2023-01-25T19:04:39.532Z,28.20
2023-01-25T19:07:06.367Z,33.58
2023-01-25T19:09:33.100Z,24.10
2023-01-25T19:11:59.956Z,29.25
2023-01-25T19:14:27.018Z,28.65
2023-01-25T19:16:53.719Z,29.50
2023-01-25T19:19:23.719Z,33.05
2023-01-25T19:21:50.619Z,30.08
2023-01-25T19:24:19.615Z,29.50
2023-01-25T19:26:47.436Z,29.30
2023-01-25T19:29:14.992Z,28.17
2023-01-25T19:31:42.006Z,33.75
2023-01-25T19:34:09.053Z,36.28
2023-01-25T19:36:37.830Z,40.00
2023-01-25T19:39:09.965Z,35.65
2023-01-25T19:41:38.786Z,35.95
2023-01-25T19:44:06.831Z,34.03
2023-01-25T19:46:35.732Z,33.45
2023-01-25T19:49:06.456Z,30.25
2023-01-25T19:51:35.470Z,32.70
2023-01-25T19:54:03.544Z,32.58
2023-01-25T19:56:41.278Z,34.08
2023-01-25T19:59:11.947Z,31.15
2023-01-25T20:01:43.723Z,35.08
2023-01-25T20:04:12.807Z,37.65
2023-01-25T20:06:39.936Z,36.35
2023-01-25T20:09:06.786Z,44.50
2023-01-25T20:11:34.132Z,53.38
2023-01-25T20:14:03.460Z,52.88
2023-01-25T20:16:32.728Z,58.72
2023-01-25T20:19:01.091Z,77.38
2023-01-25T20:21:29.145Z,92.30
2023-01-25T20:24:00.141Z,109.22
2023-01-25T20:26:31.159Z,118.80
2023-01-25T20:28:59.211Z,131.70
2023-01-25T20:31:33.860Z,139.65
2023-01-25T20:34:03.921Z,159.77
2023-01-25T20:36:32.653Z,163.90
2023-01-25T20:38:59.886Z,187.85
2023-01-25T20:41:26.885Z,194.02
2023-01-25T20:44:04.102Z,174.57
2023-01-25T20:46:33.854Z,183.65
2023-01-25T20:49:32.027Z,174.38
2023-01-25T20:51:58.807Z,182.95
2023-01-25T20:54:25.509Z,164.45
2023-01-25T20:56:52.291Z,150.32
2023-01-25T20:59:19.249Z,141.32
2023-01-25T21:01:46.716Z,144.18
2023-01-25T21:04:13.649Z,131.25
2023-01-25T21:06:40.448Z,119.50
2023-01-25T21:09:07.379Z,121.05
2023-01-25T21:11:34.801Z,117.53
2023-01-25T21:14:01.582Z,116.07
2023-01-25T21:16:28.647Z,97.68
2023-01-25T21:18:58.092Z,99.97
2023-01-25T21:21:30.031Z,95.70
2023-01-25T21:24:00.151Z,82.10
2023-01-25T21:26:30.062Z,86.25
2023-01-25T21:28:58.954Z,80.93
2023-01-25T21:31:28.467Z,79.70
2023-01-25T21:33:55.765Z,75.28
2023-01-25T21:36:22.848Z,71.70
2023-01-25T21:38:52.057Z,71.70
2023-01-25T21:41:20.526Z,63.03
2023-01-25T21:44:07.110Z,67.97
2023-01-25T21:46:34.311Z,57.00
2023-01-25T21:49:22.190Z,59.22
2023-01-25T21:51:51.507Z,62.60
2023-01-25T21:54:26.493Z,62.70
2023-01-25T21:56:55.653Z,62.67
2023-01-25T21:59:22.888Z,51.97
2023-01-25T22:01:50.719Z,49.88
2023-01-25T22:04:19.023Z,40.72
2023-01-25T22:06:46.148Z,43.15
2023-01-25T22:09:13.742Z,40.83
2023-01-25T22:11:40.776Z,39.40
2023-01-25T22:14:07.890Z,41.88
2023-01-25T22:16:34.904Z,39.05
2023-01-25T22:19:01.645Z,36.50
2023-01-25T22:21:31.879Z,41.25
2023-01-25T22:24:00.348Z,41.97
2023-01-25T22:26:32.923Z,41.65
2023-01-25T22:29:00.612Z,34.40
2023-01-25T22:31:29.932Z,36.42
2023-01-25T22:33:58.156Z,38.42
2023-01-25T22:36:27.892Z,43.00
2023-01-25T22:38:54.859Z,41.20
2023-01-25T22:41:30.284Z,36.70
2023-01-25T22:43:57.922Z,40.60
2023-01-25T22:46:27.561Z,39.85
2023-01-25T22:48:54.481Z,34.65
2023-01-25T22:51:29.285Z,36.10
2023-01-25T22:53:57.373Z,43.45
2023-01-25T22:56:27.575Z,35.97
2023-01-25T22:58:54.917Z,35.38
2023-01-25T23:01:31.040Z,39.35
2023-01-25T23:03:58.281Z,39.22
2023-01-25T23:06:28.124Z,37.28
2023-01-25T23:08:56.835Z,35.47
2023-01-25T23:11:25.023Z,42.88
2023-01-25T23:14:11.602Z,41.72
2023-01-25T23:16:38.407Z,35.85
2023-01-25T23:19:05.911Z,39.20
2023-01-25T23:21:32.651Z,34.78
2023-01-25T23:24:01.561Z,37.20
2023-01-25T23:26:39.039Z,33.15
2023-01-25T23:29:09.300Z,35.45
2023-01-25T23:31:36.698Z,33.67
2023-01-25T23:34:06.110Z,37.47
2023-01-25T23:36:35.675Z,32.05
2023-01-25T23:39:02.871Z,32.95
2023-01-25T23:41:30.615Z,34.00
2023-01-25T23:43:58.190Z,38.65
2023-01-25T23:46:25.511Z,31.80
2023-01-25T23:48:52.457Z,36.70
2023-01-25T23:51:20.117Z,37.50
2023-01-25T23:53:46.941Z,35.30
2023-01-25T23:56:16.972Z,40.00
2023-01-25T23:58:44.364Z,39.05
